ADDS METAR Data INFO
IDs: Format: Raw Decoded Include TAF

Data at: 0459 UTC 21 Feb 2018

KCWC 201515Z AUTO 14009KT 10SM VCTS BKN021 OVC055 18/16 A2988 RMK AO2 LTG DSNT N THRU SE T01820157
KCWC 201455Z AUTO 16008G18KT 140V210 10SM SCT021 BKN028 OVC055 18/16 A2986 RMK AO2 LTG DSNT NE THRU SE T01830158
KCWC 201435Z AUTO 15012G23KT 10SM SCT028 BKN041 OVC100 18/16 A2984 RMK AO2 LTG DSNT NE THRU SE T01800158
KCWC 201415Z AUTO 17017G24KT 10SM TS SCT027 SCT044 BKN100 18/15 A2983 RMK AO2 LTG DSNT ALQS T01830151
KCWC 201355Z AUTO 17015G25KT 10SM BKN110 19/15 A2981 RMK AO2 LTG DSNT E THRU SW T01870145
KCWC 201335Z AUTO 18017G24KT 10SM OVC110 19/14 A2983 RMK AO2 LTG DSNT E AND SE T01920141
KCWC 201315Z AUTO 18014G27KT 10SM BKN110 20/14 A2982 RMK AO2 LTG DSNT E T02030140
KCWC 201255Z AUTO 18015G27KT 10SM CLR 21/14 A2981 RMK AO2 LTG DSNT SE T02070140
KCWC 201235Z AUTO 18016G22KT 10SM CLR 21/15 A2980 RMK AO2 T02080146
KCWC 201215Z AUTO 18014G20KT 10SM CLR 21/15 A2979 RMK AO2 T02060153
KCWC 201155Z AUTO 18011G18KT 10SM CLR 21/16 A2978 RMK AO2 T02070162 10213 20200
KCWC 201135Z AUTO 18013G17KT 10SM SCT120 21/17 A2977 RMK AO2 LTG DSNT NE T02100167
KCWC 201115Z AUTO 18012KT 10SM SCT110 21/17 A2976 RMK AO2 T02070174
KCWC 201055Z AUTO 17011KT 10SM CLR 21/18 A2976 RMK AO2 T02060175
KCWC 201035Z AUTO 17014KT 10SM CLR 21/18 A2976 RMK AO2 LTG DSNT E AND SE T02050177
KCWC 201015Z AUTO 17014KT 10SM SCT110 21/18 A2976 RMK AO2 LTG DSNT SE T02060177
KCWC 200955Z AUTO 17015KT 10SM SCT110 21/18 A2976 RMK AO2 T02080177
KCWC 200935Z AUTO 16014G18KT 10SM SCT024 21/18 A2975 RMK AO2 LTG DSNT S T02080176
KCWC 200915Z AUTO 16013G18KT 10SM CLR 21/18 A2975 RMK AO2 LTG DSNT S T02070175
KCWC 200855Z AUTO 16012KT 10SM CLR 21/18 A2975 RMK AO2 T02100175
KCWC 200835Z AUTO 17018G23KT 10SM CLR 21/18 A2975 RMK AO2 T02130176
KCWC 200815Z AUTO 17015G21KT 10SM SCT028 21/18 A2975 RMK AO2 T02110175
KCWC 200755Z AUTO 17016G19KT 10SM BKN028 21/18 A2975 RMK AO2 T02080175
KCWC 200735Z AUTO 17014KT 10SM OVC026 21/18 A2976 RMK AO2 T02050175
KCWC 200715Z AUTO 16014KT 10SM BKN026 20/18 A2976 RMK AO2 T02010175
KCWC 200655Z AUTO 16016KT 10SM CLR 20/17 A2975 RMK AO2 T02000173
KCWC 200635Z AUTO 16017KT 10SM CLR 20/17 A2974 RMK AO2 T02000173
KCWC 200615Z AUTO 16016G21KT 10SM CLR 20/17 A2975 RMK AO2 T02010172
KCWC 200555Z AUTO 16017G23KT 10SM CLR 20/17 A2975 RMK AO2 T02040172 10240 20203 402510144
KCWC 200535Z AUTO 16015G20KT 10SM SCT025 21/17 A2975 RMK AO2 T02050170
KCWC 200515Z AUTO 16017G20KT 10SM SCT025 21/17 A2975 RMK AO2 T02090167
KCWC 200455Z AUTO 16017G21KT 10SM CLR 21/16 A2974 RMK AO2 T02120162
KCWC 200435Z AUTO 16013KT 10SM CLR 21/16 A2974 RMK AO2 T02140157
KCWC 200415Z AUTO 17017G21KT 10SM CLR 22/16 A2974 RMK AO2 T02180156
KCWC 200355Z AUTO 17017G23KT 10SM CLR 22/15 A2973 RMK AO2 T02200153
KCWC 200335Z AUTO 17017G28KT 10SM SCT110 22/15 A2971 RMK AO2 LTG DSNT N T02200152
KCWC 200315Z AUTO 15020G25KT 10SM SCT110 22/15 A2970 RMK AO2 T02220151
KCWC 200255Z AUTO 17014G20KT 10SM CLR 22/15 A2974 RMK AO2 T02230150
KCWC 200235Z AUTO 17015G20KT 10SM CLR 22/15 A2974 RMK AO2 T02230150
KCWC 200215Z AUTO 17015KT 10SM CLR 22/15 A2973 RMK AO2 T02220150
KCWC 200155Z AUTO 17016KT 10SM CLR 22/15 A2972 RMK AO2 T02230150
KCWC 200135Z AUTO 17016G20KT 10SM CLR 22/15 A2972 RMK AO2 T02230151
KCWC 200115Z AUTO 17015G20KT 10SM SCT085 23/15 A2972 RMK AO2 T02300151
KCWC 200055Z AUTO 17016G21KT 10SM CLR 23/15 A2973 RMK AO2 T02300149
KCWC 200035Z AUTO 17012G19KT 10SM SCT060 SCT070 24/15 A2973 RMK AO2 T02350151
KCWC 200015Z AUTO 16012KT 10SM SCT048 SCT065 SCT080 24/15 A2972 RMK AO2 T02390152
KCWC 192355Z AUTO 18011G16KT 7SM SCT075 SCT090 24/15 A2973 RMK AO2 T02400153 10251 20235
KCWC 192335Z AUTO 18010KT 10SM SCT070 24/15 A2972 RMK AO2 T02420153
KCWC 192315Z AUTO 18010G17KT 10SM SCT065 24/16 A2972 RMK AO2 T02430155
KCWC 192255Z AUTO 18012KT 7SM SCT040 25/16 A2972 RMK AO2 T02450156
KCWC 192235Z AUTO 18013G16KT 10SM SCT040 SCT060 25/16 A2972 RMK AO2 T02450158
KCWC 192215Z AUTO 19011KT 10SM SCT042 BKN060 24/16 A2973 RMK AO2 T02380160
KCWC 192155Z AUTO 18012G18KT 10SM BKN060 24/16 A2972 RMK AO2 T02370161
KCWC 192135Z AUTO 18015G19KT 10SM BKN060 BKN120 24/16 A2973 RMK AO2 LTG DSNT NE T02350160
KCWC 192115Z AUTO 18015KT 10SM BKN070 BKN120 24/16 A2973 RMK AO2 LTG DSNT NE T02350160
KCWC 192055Z AUTO 17015G21KT 10SM SCT070 SCT120 24/16 A2973 RMK AO2 T02400160
KCWC 192035Z AUTO 18013G23KT 10SM SCT120 24/16 A2974 RMK AO2 T02430160
KCWC 192015Z AUTO 19011G27KT 10SM CLR 25/16 A2974 RMK AO2 T02460157
KCWC 191955Z AUTO 19019G28KT 10SM SCT041 SCT050 SCT065 25/16 A2975 RMK AO2 T02490158
KCWC 191935Z AUTO 19012G24KT 10SM SCT040 BKN050 BKN060 25/16 A2976 RMK AO2 T02500156
KCWC 191915Z AUTO 21015G26KT 10SM SCT038 BKN045 BKN050 25/16 A2976 RMK AO2 T02460157
KCWC 191855Z AUTO 19011G25KT 10SM SCT036 SCT043 BKN120 25/16 A2977 RMK AO2 T02460158
KCWC 191835Z AUTO 20018G27KT 10SM SCT037 SCT044 SCT070 24/16 A2978 RMK AO2 T02440156
KCWC 191815Z AUTO 20019G28KT 10SM SCT037 BKN070 24/16 A2979 RMK AO2 T02430158
KCWC 191755Z AUTO 20020G33KT 10SM SCT037 BKN070 25/16 A2979 RMK AO2 T02450160 10245 20144
KCWC 191735Z AUTO 19017G27KT 10SM BKN070 24/16 A2980 RMK AO2 T02380160
KCWC 191715Z AUTO 20013G26KT 10SM SCT070 24/16 A2979 RMK AO2 T02350160